sensor_id;sensor_type;location;lat;lon;timestamp;temperature;humidity
16663;DHT22;8445;51.270;9.434;2022-08-03T00:00:52;15.80;65.10
16663;DHT22;8445;51.270;9.434;2022-08-03T00:03:18;15.70;65.40
16663;DHT22;8445;51.270;9.434;2022-08-03T00:05:44;15.70;65.50
16663;DHT22;8445;51.270;9.434;2022-08-03T00:08:10;15.60;65.50
16663;DHT22;8445;51.270;9.434;2022-08-03T00:10:36;15.60;65.80
16663;DHT22;8445;51.270;9.434;2022-08-03T00:13:02;15.50;66.10
16663;DHT22;8445;51.270;9.434;2022-08-03T00:15:28;15.50;66.10
16663;DHT22;8445;51.270;9.434;2022-08-03T00:17:54;15.50;66.10
16663;DHT22;8445;51.270;9.434;2022-08-03T00:20:21;15.40;66.20
16663;DHT22;8445;51.270;9.434;2022-08-03T00:22:47;15.30;66.20
16663;DHT22;8445;51.270;9.434;2022-08-03T00:25:13;15.30;66.40
16663;DHT22;8445;51.270;9.434;2022-08-03T00:27:39;15.20;66.60
16663;DHT22;8445;51.270;9.434;2022-08-03T00:30:06;15.20;67.00
16663;DHT22;8445;51.270;9.434;2022-08-03T00:32:32;15.20;67.50
16663;DHT22;8445;51.270;9.434;2022-08-03T00:34:57;15.20;67.20
16663;DHT22;8445;51.270;9.434;2022-08-03T00:37:23;15.10;67.20
16663;DHT22;8445;51.270;9.434;2022-08-03T00:39:49;15.10;68.30
16663;DHT22;8445;51.270;9.434;2022-08-03T00:42:15;15.10;67.50
16663;DHT22;8445;51.270;9.434;2022-08-03T00:44:42;15.10;67.60
16663;DHT22;8445;51.270;9.434;2022-08-03T00:47:10;15.10;67.70
16663;DHT22;8445;51.270;9.434;2022-08-03T00:49:37;15.10;67.70
16663;DHT22;8445;51.270;9.434;2022-08-03T00:52:05;15.10;68.00
16663;DHT22;8445;51.270;9.434;2022-08-03T00:54:33;15.20;68.30
16663;DHT22;8445;51.270;9.434;2022-08-03T00:57:04;15.20;68.40
16663;DHT22;8445;51.270;9.434;2022-08-03T00:59:30;15.20;68.10
16663;DHT22;8445;51.270;9.434;2022-08-03T01:01:56;15.20;68.10
16663;DHT22;8445;51.270;9.434;2022-08-03T01:04:22;15.10;68.00
16663;DHT22;8445;51.270;9.434;2022-08-03T01:07:00;15.20;68.20
16663;DHT22;8445;51.270;9.434;2022-08-03T01:09:49;15.20;68.30
16663;DHT22;8445;51.270;9.434;2022-08-03T01:12:33;15.10;68.60
16663;DHT22;8445;51.270;9.434;2022-08-03T01:15:24;15.10;68.80
16663;DHT22;8445;51.270;9.434;2022-08-03T01:18:21;15.10;69.20
16663;DHT22;8445;51.270;9.434;2022-08-03T01:20:58;15.20;69.40
16663;DHT22;8445;51.270;9.434;2022-08-03T01:35:25;15.10;68.90
16663;DHT22;8445;51.270;9.434;2022-08-03T01:38:01;15.10;68.90
16663;DHT22;8445;51.270;9.434;2022-08-03T01:40:32;15.10;69.20
16663;DHT22;8445;51.270;9.434;2022-08-03T01:43:02;15.10;69.40
16663;DHT22;8445;51.270;9.434;2022-08-03T01:45:29;15.10;69.60
16663;DHT22;8445;51.270;9.434;2022-08-03T01:47:58;15.00;69.80
16663;DHT22;8445;51.270;9.434;2022-08-03T01:50:27;15.00;69.60
16663;DHT22;8445;51.270;9.434;2022-08-03T01:52:56;15.00;69.70
16663;DHT22;8445;51.270;9.434;2022-08-03T01:55:24;15.00;70.20
16663;DHT22;8445;51.270;9.434;2022-08-03T01:57:53;15.00;70.20
16663;DHT22;8445;51.270;9.434;2022-08-03T02:00:22;15.00;70.30
16663;DHT22;8445;51.270;9.434;2022-08-03T02:02:51;15.00;70.20
16663;DHT22;8445;51.270;9.434;2022-08-03T02:05:20;15.00;70.40
16663;DHT22;8445;51.270;9.434;2022-08-03T02:07:48;15.00;70.30
16663;DHT22;8445;51.270;9.434;2022-08-03T02:10:18;15.00;70.40
16663;DHT22;8445;51.270;9.434;2022-08-03T02:12:46;14.90;70.40
16663;DHT22;8445;51.270;9.434;2022-08-03T02:15:15;14.90;70.60
16663;DHT22;8445;51.270;9.434;2022-08-03T02:17:46;14.90;70.60
16663;DHT22;8445;51.270;9.434;2022-08-03T02:20:16;14.90;70.50
16663;DHT22;8445;51.270;9.434;2022-08-03T02:23:27;14.90;70.60
16663;DHT22;8445;51.270;9.434;2022-08-03T02:25:57;14.90;70.80
16663;DHT22;8445;51.270;9.434;2022-08-03T02:28:36;14.80;70.70
16663;DHT22;8445;51.270;9.434;2022-08-03T02:31:12;14.80;70.90
16663;DHT22;8445;51.270;9.434;2022-08-03T02:33:50;14.80;71.00
16663;DHT22;8445;51.270;9.434;2022-08-03T02:36:27;14.70;71.10
16663;DHT22;8445;51.270;9.434;2022-08-03T02:38:58;14.80;71.30
16663;DHT22;8445;51.270;9.434;2022-08-03T02:41:35;14.70;71.20
16663;DHT22;8445;51.270;9.434;2022-08-03T02:44:08;14.70;71.20
16663;DHT22;8445;51.270;9.434;2022-08-03T02:46:37;14.70;71.40
16663;DHT22;8445;51.270;9.434;2022-08-03T02:49:06;14.60;71.50
16663;DHT22;8445;51.270;9.434;2022-08-03T02:51:35;14.60;71.90
16663;DHT22;8445;51.270;9.434;2022-08-03T02:54:05;14.60;72.10
16663;DHT22;8445;51.270;9.434;2022-08-03T02:56:34;14.60;71.90
16663;DHT22;8445;51.270;9.434;2022-08-03T02:59:02;14.60;72.10
16663;DHT22;8445;51.270;9.434;2022-08-03T03:01:29;14.60;72.30
16663;DHT22;8445;51.270;9.434;2022-08-03T03:03:57;14.70;72.40
16663;DHT22;8445;51.270;9.434;2022-08-03T03:06:24;14.60;72.40
16663;DHT22;8445;51.270;9.434;2022-08-03T03:08:52;14.60;72.50
16663;DHT22;8445;51.270;9.434;2022-08-03T03:11:20;14.60;72.40
16663;DHT22;8445;51.270;9.434;2022-08-03T03:13:48;14.60;72.50
16663;DHT22;8445;51.270;9.434;2022-08-03T03:16:16;14.60;72.40
16663;DHT22;8445;51.270;9.434;2022-08-03T03:18:44;14.60;72.50
16663;DHT22;8445;51.270;9.434;2022-08-03T03:21:15;14.60;72.70
16663;DHT22;8445;51.270;9.434;2022-08-03T03:23:44;14.60;73.60
16663;DHT22;8445;51.270;9.434;2022-08-03T03:26:13;14.50;72.60
16663;DHT22;8445;51.270;9.434;2022-08-03T03:28:40;14.50;72.70
16663;DHT22;8445;51.270;9.434;2022-08-03T03:31:07;14.50;72.80
16663;DHT22;8445;51.270;9.434;2022-08-03T03:33:35;14.50;73.10
16663;DHT22;8445;51.270;9.434;2022-08-03T03:36:03;14.50;73.10
16663;DHT22;8445;51.270;9.434;2022-08-03T03:38:31;14.50;73.20
16663;DHT22;8445;51.270;9.434;2022-08-03T03:40:58;14.50;73.30
16663;DHT22;8445;51.270;9.434;2022-08-03T03:43:24;14.50;73.30
16663;DHT22;8445;51.270;9.434;2022-08-03T03:45:51;14.40;73.20
16663;DHT22;8445;51.270;9.434;2022-08-03T03:48:19;14.40;73.60
16663;DHT22;8445;51.270;9.434;2022-08-03T03:50:45;14.50;73.80
16663;DHT22;8445;51.270;9.434;2022-08-03T03:53:14;14.40;73.60
16663;DHT22;8445;51.270;9.434;2022-08-03T03:55:40;14.40;73.50
16663;DHT22;8445;51.270;9.434;2022-08-03T03:58:06;14.40;73.50
16663;DHT22;8445;51.270;9.434;2022-08-03T04:00:33;14.40;73.60
16663;DHT22;8445;51.270;9.434;2022-08-03T04:02:58;14.40;73.70
16663;DHT22;8445;51.270;9.434;2022-08-03T04:05:25;14.40;73.70
16663;DHT22;8445;51.270;9.434;2022-08-03T04:08:13;14.40;74.00
16663;DHT22;8445;51.270;9.434;2022-08-03T04:14:11;14.40;74.40
16663;DHT22;8445;51.270;9.434;2022-08-03T04:16:44;14.50;74.10
16663;DHT22;8445;51.270;9.434;2022-08-03T04:19:21;14.50;74.20
16663;DHT22;8445;51.270;9.434;2022-08-03T04:21:55;14.60;75.30
16663;DHT22;8445;51.270;9.434;2022-08-03T04:24:37;14.60;74.70
16663;DHT22;8445;51.270;9.434;2022-08-03T04:27:07;14.70;74.40
16663;DHT22;8445;51.270;9.434;2022-08-03T04:29:39;14.80;74.50
16663;DHT22;8445;51.270;9.434;2022-08-03T04:32:09;14.80;74.20
16663;DHT22;8445;51.270;9.434;2022-08-03T04:34:36;14.90;74.40
16663;DHT22;8445;51.270;9.434;2022-08-03T04:37:08;14.90;74.40
16663;DHT22;8445;51.270;9.434;2022-08-03T04:39:37;15.00;74.80
16663;DHT22;8445;51.270;9.434;2022-08-03T04:42:08;15.10;74.70
16663;DHT22;8445;51.270;9.434;2022-08-03T04:44:39;15.20;75.10
16663;DHT22;8445;51.270;9.434;2022-08-03T04:47:07;15.30;74.50
16663;DHT22;8445;51.270;9.434;2022-08-03T04:49:35;15.40;74.50
16663;DHT22;8445;51.270;9.434;2022-08-03T04:52:02;15.50;74.60
16663;DHT22;8445;51.270;9.434;2022-08-03T04:54:30;15.60;74.70
16663;DHT22;8445;51.270;9.434;2022-08-03T04:57:03;15.70;74.50
16663;DHT22;8445;51.270;9.434;2022-08-03T04:59:29;15.90;74.50
16663;DHT22;8445;51.270;9.434;2022-08-03T05:01:55;15.90;74.50
16663;DHT22;8445;51.270;9.434;2022-08-03T05:04:21;16.10;74.80
16663;DHT22;8445;51.270;9.434;2022-08-03T05:06:47;16.20;74.60
16663;DHT22;8445;51.270;9.434;2022-08-03T05:09:13;16.30;74.40
16663;DHT22;8445;51.270;9.434;2022-08-03T05:11:39;16.40;74.40
16663;DHT22;8445;51.270;9.434;2022-08-03T05:14:04;16.50;74.30
16663;DHT22;8445;51.270;9.434;2022-08-03T05:16:30;16.60;74.30
16663;DHT22;8445;51.270;9.434;2022-08-03T05:18:56;16.70;74.10
16663;DHT22;8445;51.270;9.434;2022-08-03T05:21:22;16.70;74.00
16663;DHT22;8445;51.270;9.434;2022-08-03T05:23:48;16.80;74.20
16663;DHT22;8445;51.270;9.434;2022-08-03T05:26:14;16.90;74.20
16663;DHT22;8445;51.270;9.434;2022-08-03T05:28:39;17.00;74.10
16663;DHT22;8445;51.270;9.434;2022-08-03T05:31:05;17.00;74.10
16663;DHT22;8445;51.270;9.434;2022-08-03T05:33:31;17.10;74.20
16663;DHT22;8445;51.270;9.434;2022-08-03T05:35:57;17.20;74.30
16663;DHT22;8445;51.270;9.434;2022-08-03T05:38:24;17.30;74.30
16663;DHT22;8445;51.270;9.434;2022-08-03T05:40:50;17.40;74.20
16663;DHT22;8445;51.270;9.434;2022-08-03T05:43:16;17.40;74.20
16663;DHT22;8445;51.270;9.434;2022-08-03T05:45:42;17.50;74.20
16663;DHT22;8445;51.270;9.434;2022-08-03T05:48:08;17.60;74.20
16663;DHT22;8445;51.270;9.434;2022-08-03T05:50:34;17.60;74.20
16663;DHT22;8445;51.270;9.434;2022-08-03T05:53:01;17.70;74.60
16663;DHT22;8445;51.270;9.434;2022-08-03T05:55:27;17.80;74.40
16663;DHT22;8445;51.270;9.434;2022-08-03T05:57:53;17.80;74.30
16663;DHT22;8445;51.270;9.434;2022-08-03T06:00:19;17.90;74.30
16663;DHT22;8445;51.270;9.434;2022-08-03T06:02:44;18.00;74.50
16663;DHT22;8445;51.270;9.434;2022-08-03T06:05:11;18.00;74.30
16663;DHT22;8445;51.270;9.434;2022-08-03T06:07:37;18.10;74.40
16663;DHT22;8445;51.270;9.434;2022-08-03T06:10:04;18.20;74.30
16663;DHT22;8445;51.270;9.434;2022-08-03T06:12:30;18.20;74.30
16663;DHT22;8445;51.270;9.434;2022-08-03T06:14:56;18.30;74.20
16663;DHT22;8445;51.270;9.434;2022-08-03T06:17:22;18.40;74.20
16663;DHT22;8445;51.270;9.434;2022-08-03T06:19:50;18.50;74.20
16663;DHT22;8445;51.270;9.434;2022-08-03T06:22:17;18.60;74.30
16663;DHT22;8445;51.270;9.434;2022-08-03T06:24:46;18.60;74.20
16663;DHT22;8445;51.270;9.434;2022-08-03T06:27:12;18.70;74.10
16663;DHT22;8445;51.270;9.434;2022-08-03T06:29:38;18.80;74.10
16663;DHT22;8445;51.270;9.434;2022-08-03T06:32:04;18.90;74.20
16663;DHT22;8445;51.270;9.434;2022-08-03T06:34:30;19.00;74.20
16663;DHT22;8445;51.270;9.434;2022-08-03T06:36:56;19.10;74.10
16663;DHT22;8445;51.270;9.434;2022-08-03T06:39:22;19.10;74.00
16663;DHT22;8445;51.270;9.434;2022-08-03T06:41:48;19.20;73.90
16663;DHT22;8445;51.270;9.434;2022-08-03T06:44:16;19.30;73.80
16663;DHT22;8445;51.270;9.434;2022-08-03T06:46:42;19.40;73.90
16663;DHT22;8445;51.270;9.434;2022-08-03T06:49:07;19.50;73.90
16663;DHT22;8445;51.270;9.434;2022-08-03T06:51:33;19.60;73.80
16663;DHT22;8445;51.270;9.434;2022-08-03T06:53:59;19.70;73.70
16663;DHT22;8445;51.270;9.434;2022-08-03T06:56:25;19.80;73.60
16663;DHT22;8445;51.270;9.434;2022-08-03T06:58:52;19.90;73.40
16663;DHT22;8445;51.270;9.434;2022-08-03T07:01:18;20.00;73.30
16663;DHT22;8445;51.270;9.434;2022-08-03T07:03:43;20.10;73.20
16663;DHT22;8445;51.270;9.434;2022-08-03T07:06:09;20.20;73.20
16663;DHT22;8445;51.270;9.434;2022-08-03T07:08:35;20.30;73.00
16663;DHT22;8445;51.270;9.434;2022-08-03T07:11:01;20.40;72.90
16663;DHT22;8445;51.270;9.434;2022-08-03T07:13:27;20.40;72.80
16663;DHT22;8445;51.270;9.434;2022-08-03T07:15:57;20.50;72.70
16663;DHT22;8445;51.270;9.434;2022-08-03T07:18:23;20.70;72.20
16663;DHT22;8445;51.270;9.434;2022-08-03T07:20:49;20.80;72.30
16663;DHT22;8445;51.270;9.434;2022-08-03T07:23:15;20.90;72.40
16663;DHT22;8445;51.270;9.434;2022-08-03T07:25:41;20.90;72.20
16663;DHT22;8445;51.270;9.434;2022-08-03T07:28:07;21.00;72.10
16663;DHT22;8445;51.270;9.434;2022-08-03T07:30:32;21.10;72.10
16663;DHT22;8445;51.270;9.434;2022-08-03T07:32:59;21.20;71.80
16663;DHT22;8445;51.270;9.434;2022-08-03T07:35:25;21.30;71.50
16663;DHT22;8445;51.270;9.434;2022-08-03T07:37:52;21.30;71.70
16663;DHT22;8445;51.270;9.434;2022-08-03T07:40:18;21.40;71.60
16663;DHT22;8445;51.270;9.434;2022-08-03T07:42:44;21.50;71.40
16663;DHT22;8445;51.270;9.434;2022-08-03T07:45:10;21.60;71.50
16663;DHT22;8445;51.270;9.434;2022-08-03T07:47:36;21.70;71.40
16663;DHT22;8445;51.270;9.434;2022-08-03T07:50:03;21.80;70.90
16663;DHT22;8445;51.270;9.434;2022-08-03T07:52:30;21.80;71.10
16663;DHT22;8445;51.270;9.434;2022-08-03T07:55:17;22.00;71.20
16663;DHT22;8445;51.270;9.434;2022-08-03T07:57:45;22.10;70.60
16663;DHT22;8445;51.270;9.434;2022-08-03T08:00:17;22.20;70.60
16663;DHT22;8445;51.270;9.434;2022-08-03T08:02:44;22.30;70.60
16663;DHT22;8445;51.270;9.434;2022-08-03T08:05:10;22.40;70.40
16663;DHT22;8445;51.270;9.434;2022-08-03T08:07:37;22.50;70.40
16663;DHT22;8445;51.270;9.434;2022-08-03T08:10:08;22.60;71.30
16663;DHT22;8445;51.270;9.434;2022-08-03T08:12:35;22.70;69.80
16663;DHT22;8445;51.270;9.434;2022-08-03T08:15:02;22.80;69.70
16663;DHT22;8445;51.270;9.434;2022-08-03T08:17:29;22.90;69.70
16663;DHT22;8445;51.270;9.434;2022-08-03T08:19:55;23.00;69.60
16663;DHT22;8445;51.270;9.434;2022-08-03T08:22:22;23.10;69.60
16663;DHT22;8445;51.270;9.434;2022-08-03T08:24:48;23.20;69.50
16663;DHT22;8445;51.270;9.434;2022-08-03T08:27:14;23.30;69.10
16663;DHT22;8445;51.270;9.434;2022-08-03T08:29:40;23.40;69.00
16663;DHT22;8445;51.270;9.434;2022-08-03T08:32:06;23.50;69.00
16663;DHT22;8445;51.270;9.434;2022-08-03T08:34:32;23.50;68.70
16663;DHT22;8445;51.270;9.434;2022-08-03T08:36:57;23.70;68.90
16663;DHT22;8445;51.270;9.434;2022-08-03T08:39:23;23.80;68.60
16663;DHT22;8445;51.270;9.434;2022-08-03T08:41:50;23.80;68.70
16663;DHT22;8445;51.270;9.434;2022-08-03T08:44:16;23.90;68.30
16663;DHT22;8445;51.270;9.434;2022-08-03T08:46:43;24.10;68.30
16663;DHT22;8445;51.270;9.434;2022-08-03T08:49:15;24.20;68.10
16663;DHT22;8445;51.270;9.434;2022-08-03T08:51:46;24.30;67.60
16663;DHT22;8445;51.270;9.434;2022-08-03T08:54:17;24.40;67.60
16663;DHT22;8445;51.270;9.434;2022-08-03T08:56:49;24.50;67.60
16663;DHT22;8445;51.270;9.434;2022-08-03T08:59:21;24.60;67.10
16663;DHT22;8445;51.270;9.434;2022-08-03T09:01:48;24.80;67.00
16663;DHT22;8445;51.270;9.434;2022-08-03T09:04:14;24.90;66.80
16663;DHT22;8445;51.270;9.434;2022-08-03T09:06:40;25.00;66.70
16663;DHT22;8445;51.270;9.434;2022-08-03T09:09:06;25.10;66.30
16663;DHT22;8445;51.270;9.434;2022-08-03T09:11:32;25.10;65.90
16663;DHT22;8445;51.270;9.434;2022-08-03T09:13:58;25.30;66.00
16663;DHT22;8445;51.270;9.434;2022-08-03T09:16:24;25.40;65.00
16663;DHT22;8445;51.270;9.434;2022-08-03T09:18:53;25.50;65.30
16663;DHT22;8445;51.270;9.434;2022-08-03T09:21:25;25.60;66.10
16663;DHT22;8445;51.270;9.434;2022-08-03T09:23:58;25.60;65.00
16663;DHT22;8445;51.270;9.434;2022-08-03T09:26:30;25.70;64.50
16663;DHT22;8445;51.270;9.434;2022-08-03T09:29:08;25.80;64.40
16663;DHT22;8445;51.270;9.434;2022-08-03T09:31:38;25.90;64.40
16663;DHT22;8445;51.270;9.434;2022-08-03T09:34:07;26.00;64.40
16663;DHT22;8445;51.270;9.434;2022-08-03T09:37:01;26.10;64.10
16663;DHT22;8445;51.270;9.434;2022-08-03T09:39:38;26.20;63.60
16663;DHT22;8445;51.270;9.434;2022-08-03T09:42:15;26.30;63.40
16663;DHT22;8445;51.270;9.434;2022-08-03T09:44:46;26.40;63.00
16663;DHT22;8445;51.270;9.434;2022-08-03T09:47:15;26.50;63.40
16663;DHT22;8445;51.270;9.434;2022-08-03T09:50:01;26.60;63.30
16663;DHT22;8445;51.270;9.434;2022-08-03T09:52:37;26.70;62.50
16663;DHT22;8445;51.270;9.434;2022-08-03T09:55:12;26.80;62.40
16663;DHT22;8445;51.270;9.434;2022-08-03T09:57:39;27.00;62.40
16663;DHT22;8445;51.270;9.434;2022-08-03T10:00:14;27.00;62.10
16663;DHT22;8445;51.270;9.434;2022-08-03T10:02:43;27.10;61.90
16663;DHT22;8445;51.270;9.434;2022-08-03T10:05:12;27.20;61.70
16663;DHT22;8445;51.270;9.434;2022-08-03T10:07:48;27.20;61.70
16663;DHT22;8445;51.270;9.434;2022-08-03T10:10:16;27.30;61.20
16663;DHT22;8445;51.270;9.434;2022-08-03T10:12:45;27.40;62.30
16663;DHT22;8445;51.270;9.434;2022-08-03T10:15:13;27.40;61.10
16663;DHT22;8445;51.270;9.434;2022-08-03T10:17:39;27.50;61.00
16663;DHT22;8445;51.270;9.434;2022-08-03T10:20:08;27.60;60.90
16663;DHT22;8445;51.270;9.434;2022-08-03T10:22:35;27.70;60.80
16663;DHT22;8445;51.270;9.434;2022-08-03T10:25:08;27.70;60.90
16663;DHT22;8445;51.270;9.434;2022-08-03T10:27:39;27.80;60.40
16663;DHT22;8445;51.270;9.434;2022-08-03T10:30:08;27.80;60.10
16663;DHT22;8445;51.270;9.434;2022-08-03T10:33:26;27.80;60.10
16663;DHT22;8445;51.270;9.434;2022-08-03T10:35:51;27.80;59.40
16663;DHT22;8445;51.270;9.434;2022-08-03T10:38:28;27.90;59.50
16663;DHT22;8445;51.270;9.434;2022-08-03T10:40:58;27.90;59.40
16663;DHT22;8445;51.270;9.434;2022-08-03T10:43:32;28.00;59.30
16663;DHT22;8445;51.270;9.434;2022-08-03T10:46:04;28.00;58.80
16663;DHT22;8445;51.270;9.434;2022-08-03T10:48:33;28.10;58.60
16663;DHT22;8445;51.270;9.434;2022-08-03T10:51:00;28.20;57.50
16663;DHT22;8445;51.270;9.434;2022-08-03T10:53:37;28.30;57.80
16663;DHT22;8445;51.270;9.434;2022-08-03T10:56:06;28.40;57.80
16663;DHT22;8445;51.270;9.434;2022-08-03T10:59:17;28.50;58.10
16663;DHT22;8445;51.270;9.434;2022-08-03T11:01:55;28.60;57.90
16663;DHT22;8445;51.270;9.434;2022-08-03T11:04:23;28.70;57.60
16663;DHT22;8445;51.270;9.434;2022-08-03T11:09:45;28.90;56.60
16663;DHT22;8445;51.270;9.434;2022-08-03T11:12:32;29.00;56.70
16663;DHT22;8445;51.270;9.434;2022-08-03T11:15:02;29.20;55.90
16663;DHT22;8445;51.270;9.434;2022-08-03T11:17:33;29.20;56.60
16663;DHT22;8445;51.270;9.434;2022-08-03T11:20:00;29.30;55.80
16663;DHT22;8445;51.270;9.434;2022-08-03T11:22:47;29.30;55.60
16663;DHT22;8445;51.270;9.434;2022-08-03T11:25:13;29.30;54.90
16663;DHT22;8445;51.270;9.434;2022-08-03T11:27:40;29.40;54.40
16663;DHT22;8445;51.270;9.434;2022-08-03T11:30:26;29.40;55.50
16663;DHT22;8445;51.270;9.434;2022-08-03T11:32:57;29.40;54.70
16663;DHT22;8445;51.270;9.434;2022-08-03T11:40:52;29.50;54.10
16663;DHT22;8445;51.270;9.434;2022-08-03T11:46:24;29.60;52.90
16663;DHT22;8445;51.270;9.434;2022-08-03T12:09:31;30.20;51.30
16663;DHT22;8445;51.270;9.434;2022-08-03T12:12:00;30.10;52.60
16663;DHT22;8445;51.270;9.434;2022-08-03T12:14:29;30.00;52.50
16663;DHT22;8445;51.270;9.434;2022-08-03T12:16:56;30.00;52.80
16663;DHT22;8445;51.270;9.434;2022-08-03T12:19:22;30.00;52.70
16663;DHT22;8445;51.270;9.434;2022-08-03T12:21:50;30.10;52.20
16663;DHT22;8445;51.270;9.434;2022-08-03T12:24:16;30.20;51.80
16663;DHT22;8445;51.270;9.434;2022-08-03T12:26:47;30.40;51.20
16663;DHT22;8445;51.270;9.434;2022-08-03T12:29:21;30.50;51.40
16663;DHT22;8445;51.270;9.434;2022-08-03T12:31:50;30.60;51.40
16663;DHT22;8445;51.270;9.434;2022-08-03T12:34:16;30.60;50.00
16663;DHT22;8445;51.270;9.434;2022-08-03T12:36:53;30.60;50.80
16663;DHT22;8445;51.270;9.434;2022-08-03T12:39:25;30.60;50.60
16663;DHT22;8445;51.270;9.434;2022-08-03T12:41:55;30.70;50.60
16663;DHT22;8445;51.270;9.434;2022-08-03T12:44:33;30.70;50.50
16663;DHT22;8445;51.270;9.434;2022-08-03T12:47:02;30.70;50.10
16663;DHT22;8445;51.270;9.434;2022-08-03T12:49:51;30.80;49.90
16663;DHT22;8445;51.270;9.434;2022-08-03T12:52:20;30.80;49.50
16663;DHT22;8445;51.270;9.434;2022-08-03T12:54:54;30.80;49.20
16663;DHT22;8445;51.270;9.434;2022-08-03T12:57:21;30.90;49.80
16663;DHT22;8445;51.270;9.434;2022-08-03T12:59:46;30.80;49.20
16663;DHT22;8445;51.270;9.434;2022-08-03T13:02:24;30.90;49.30
16663;DHT22;8445;51.270;9.434;2022-08-03T13:04:51;30.80;44.70
16663;DHT22;8445;51.270;9.434;2022-08-03T13:07:19;31.00;49.00
16663;DHT22;8445;51.270;9.434;2022-08-03T13:12:18;31.00;48.30
16663;DHT22;8445;51.270;9.434;2022-08-03T13:14:58;31.10;48.10
16663;DHT22;8445;51.270;9.434;2022-08-03T13:17:27;31.10;48.00
16663;DHT22;8445;51.270;9.434;2022-08-03T13:19:53;31.20;47.90
16663;DHT22;8445;51.270;9.434;2022-08-03T13:22:22;31.30;47.80
16663;DHT22;8445;51.270;9.434;2022-08-03T13:24:51;31.40;47.40
16663;DHT22;8445;51.270;9.434;2022-08-03T13:27:20;31.50;47.30
16663;DHT22;8445;51.270;9.434;2022-08-03T13:29:46;31.60;47.60
16663;DHT22;8445;51.270;9.434;2022-08-03T13:32:12;31.60;46.50
16663;DHT22;8445;51.270;9.434;2022-08-03T13:34:38;31.80;46.70
16663;DHT22;8445;51.270;9.434;2022-08-03T13:37:04;31.90;47.00
16663;DHT22;8445;51.270;9.434;2022-08-03T13:39:30;32.00;46.00
16663;DHT22;8445;51.270;9.434;2022-08-03T13:41:55;32.10;46.50
16663;DHT22;8445;51.270;9.434;2022-08-03T13:44:22;32.20;46.00
16663;DHT22;8445;51.270;9.434;2022-08-03T13:46:48;32.30;46.40
16663;DHT22;8445;51.270;9.434;2022-08-03T13:49:14;32.40;45.80
16663;DHT22;8445;51.270;9.434;2022-08-03T13:51:40;32.40;45.60
16663;DHT22;8445;51.270;9.434;2022-08-03T13:54:06;32.50;45.60
16663;DHT22;8445;51.270;9.434;2022-08-03T13:56:33;32.50;45.00
16663;DHT22;8445;51.270;9.434;2022-08-03T13:58:59;32.40;45.00
16663;DHT22;8445;51.270;9.434;2022-08-03T14:01:25;32.40;45.30
16663;DHT22;8445;51.270;9.434;2022-08-03T14:03:51;32.40;45.40
16663;DHT22;8445;51.270;9.434;2022-08-03T14:06:25;32.40;44.80
16663;DHT22;8445;51.270;9.434;2022-08-03T14:08:51;32.40;45.80
16663;DHT22;8445;51.270;9.434;2022-08-03T14:11:17;32.20;44.60
16663;DHT22;8445;51.270;9.434;2022-08-03T14:13:44;32.10;44.50
16663;DHT22;8445;51.270;9.434;2022-08-03T14:16:10;31.90;44.30
16663;DHT22;8445;51.270;9.434;2022-08-03T14:18:39;31.80;44.60
16663;DHT22;8445;51.270;9.434;2022-08-03T14:21:06;31.80;44.60
16663;DHT22;8445;51.270;9.434;2022-08-03T14:23:36;31.70;44.50
16663;DHT22;8445;51.270;9.434;2022-08-03T14:26:06;31.70;45.50
16663;DHT22;8445;51.270;9.434;2022-08-03T14:28:34;31.80;44.50
16663;DHT22;8445;51.270;9.434;2022-08-03T14:31:01;31.80;44.20
16663;DHT22;8445;51.270;9.434;2022-08-03T14:33:27;31.80;44.20
16663;DHT22;8445;51.270;9.434;2022-08-03T14:35:53;31.80;43.80
16663;DHT22;8445;51.270;9.434;2022-08-03T14:38:19;31.80;43.80
16663;DHT22;8445;51.270;9.434;2022-08-03T14:40:46;31.80;43.40
16663;DHT22;8445;51.270;9.434;2022-08-03T14:43:13;31.80;43.40
16663;DHT22;8445;51.270;9.434;2022-08-03T14:45:40;31.80;43.20
16663;DHT22;8445;51.270;9.434;2022-08-03T14:48:06;31.90;43.10
16663;DHT22;8445;51.270;9.434;2022-08-03T14:50:32;31.90;43.00
16663;DHT22;8445;51.270;9.434;2022-08-03T14:52:58;31.90;42.70
16663;DHT22;8445;51.270;9.434;2022-08-03T14:55:24;31.90;43.60
16663;DHT22;8445;51.270;9.434;2022-08-03T14:57:49;32.00;42.60
16663;DHT22;8445;51.270;9.434;2022-08-03T15:00:15;32.00;42.60
16663;DHT22;8445;51.270;9.434;2022-08-03T15:02:42;32.00;42.70
16663;DHT22;8445;51.270;9.434;2022-08-03T15:05:08;32.00;42.20
16663;DHT22;8445;51.270;9.434;2022-08-03T15:07:37;32.00;42.30
16663;DHT22;8445;51.270;9.434;2022-08-03T15:10:04;32.00;41.60
16663;DHT22;8445;51.270;9.434;2022-08-03T15:12:30;32.00;41.80
16663;DHT22;8445;51.270;9.434;2022-08-03T15:14:56;31.90;41.30
16663;DHT22;8445;51.270;9.434;2022-08-03T15:17:24;31.90;41.80
16663;DHT22;8445;51.270;9.434;2022-08-03T15:19:55;31.90;41.80
16663;DHT22;8445;51.270;9.434;2022-08-03T15:22:26;31.80;41.30
16663;DHT22;8445;51.270;9.434;2022-08-03T15:24:58;31.90;41.80
16663;DHT22;8445;51.270;9.434;2022-08-03T15:27:28;31.90;41.60
16663;DHT22;8445;51.270;9.434;2022-08-03T15:30:00;31.80;41.40
16663;DHT22;8445;51.270;9.434;2022-08-03T15:32:38;31.70;41.30
16663;DHT22;8445;51.270;9.434;2022-08-03T15:35:08;31.60;42.30
16663;DHT22;8445;51.270;9.434;2022-08-03T15:37:39;31.70;41.30
16663;DHT22;8445;51.270;9.434;2022-08-03T15:40:12;31.60;41.30
16663;DHT22;8445;51.270;9.434;2022-08-03T15:42:42;31.60;41.20
16663;DHT22;8445;51.270;9.434;2022-08-03T15:45:17;31.80;41.20
16663;DHT22;8445;51.270;9.434;2022-08-03T15:47:45;31.80;40.40
16663;DHT22;8445;51.270;9.434;2022-08-03T15:50:11;31.90;40.70
16663;DHT22;8445;51.270;9.434;2022-08-03T15:52:37;32.00;40.70
16663;DHT22;8445;51.270;9.434;2022-08-03T15:55:06;32.00;40.60
16663;DHT22;8445;51.270;9.434;2022-08-03T15:57:36;32.10;40.70
16663;DHT22;8445;51.270;9.434;2022-08-03T16:00:07;32.20;40.60
16663;DHT22;8445;51.270;9.434;2022-08-03T16:02:34;32.30;40.60
16663;DHT22;8445;51.270;9.434;2022-08-03T16:05:00;32.40;40.30
16663;DHT22;8445;51.270;9.434;2022-08-03T16:07:26;32.40;40.20
16663;DHT22;8445;51.270;9.434;2022-08-03T16:10:08;32.40;40.10
16663;DHT22;8445;51.270;9.434;2022-08-03T16:12:35;32.40;39.80
16663;DHT22;8445;51.270;9.434;2022-08-03T16:15:02;32.40;39.80
16663;DHT22;8445;51.270;9.434;2022-08-03T16:17:29;32.40;39.80
16663;DHT22;8445;51.270;9.434;2022-08-03T16:19:56;32.30;39.60
16663;DHT22;8445;51.270;9.434;2022-08-03T16:22:23;32.20;39.50
16663;DHT22;8445;51.270;9.434;2022-08-03T16:24:50;32.20;39.30
16663;DHT22;8445;51.270;9.434;2022-08-03T16:27:17;32.20;39.30
16663;DHT22;8445;51.270;9.434;2022-08-03T16:29:44;32.20;39.20
16663;DHT22;8445;51.270;9.434;2022-08-03T16:32:10;32.20;39.30
16663;DHT22;8445;51.270;9.434;2022-08-03T16:34:37;32.10;39.20
16663;DHT22;8445;51.270;9.434;2022-08-03T16:37:04;32.00;39.10
16663;DHT22;8445;51.270;9.434;2022-08-03T16:39:30;32.00;39.30
16663;DHT22;8445;51.270;9.434;2022-08-03T16:41:57;32.10;39.30
16663;DHT22;8445;51.270;9.434;2022-08-03T16:44:24;32.20;39.50
16663;DHT22;8445;51.270;9.434;2022-08-03T16:46:51;32.20;39.10